createdAt,value
2019-04-18T00:01:43.948Z,47.20
2019-04-18T00:05:48.835Z,47.90
2019-04-18T00:09:51.849Z,49.00
2019-04-18T00:14:02.797Z,48.60
2019-04-18T00:18:05.338Z,48.20
2019-04-18T00:22:05.379Z,48.20
2019-04-18T00:42:24.151Z,46.90
2019-04-18T00:46:27.716Z,47.40
2019-04-18T00:50:30.876Z,48.60
2019-04-18T00:54:33.954Z,49.30
2019-04-18T00:58:36.969Z,48.40
2019-04-18T01:02:39.971Z,48.60
2019-04-18T01:06:42.976Z,49.00
2019-04-18T01:10:46.000Z,49.40
2019-04-18T01:14:50.218Z,49.40
2019-04-18T01:18:53.371Z,49.20
2019-04-18T01:22:58.203Z,50.00
2019-04-18T01:31:04.843Z,49.80
2019-04-18T01:35:08.162Z,49.80
2019-04-18T01:39:15.805Z,50.50
2019-04-18T01:43:27.791Z,50.60
2019-04-18T01:47:30.796Z,50.30
2019-04-18T01:51:33.860Z,50.10
2019-04-18T01:55:36.871Z,50.80
2019-04-18T01:59:41.162Z,51.10
2019-04-18T02:03:44.783Z,51.60
2019-04-18T02:07:47.788Z,52.00
2019-04-18T02:11:50.783Z,52.40
2019-04-18T02:15:53.964Z,52.40
2019-04-18T02:20:00.412Z,52.30
2019-04-18T02:24:02.976Z,52.30
2019-04-18T02:28:07.973Z,53.00
2019-04-18T02:32:11.151Z,53.00
2019-04-18T02:36:14.156Z,53.10
2019-04-18T02:40:17.878Z,53.40
2019-04-18T02:44:26.642Z,53.90
2019-04-18T02:48:27.022Z,53.90
2019-04-18T02:52:31.379Z,55.00
2019-04-18T02:56:36.295Z,54.30
2019-04-18T03:00:52.694Z,54.00
2019-04-18T03:04:55.167Z,54.20
2019-04-18T03:09:00.267Z,54.10
2019-04-18T03:13:04.798Z,54.20
2019-04-18T03:17:08.126Z,54.50
2019-04-18T03:21:11.410Z,54.40
2019-04-18T03:25:19.135Z,54.80
2019-04-18T03:33:26.535Z,55.40
2019-04-18T03:37:29.599Z,55.60
2019-04-18T03:41:32.889Z,56.10
2019-04-18T03:45:55.600Z,56.40
2019-04-18T03:49:58.669Z,57.00
2019-04-18T03:54:02.620Z,57.50
2019-04-18T03:58:07.956Z,58.20
2019-04-18T04:02:11.584Z,58.50
2019-04-18T04:06:19.599Z,59.00
2019-04-18T04:10:20.500Z,59.10
2019-04-18T04:14:23.539Z,59.30
2019-04-18T04:18:28.556Z,59.10
2019-04-18T04:22:31.568Z,58.80
2019-04-18T04:26:34.680Z,59.30
2019-04-18T04:34:43.558Z,59.30
2019-04-18T04:38:52.188Z,59.10
2019-04-18T04:42:56.825Z,59.10
2019-04-18T04:47:39.284Z,59.20
2019-04-18T04:51:56.604Z,59.20
2019-04-18T04:56:07.518Z,59.60
2019-04-18T05:00:12.639Z,60.10
2019-04-18T05:04:16.138Z,60.80
2019-04-18T05:08:19.263Z,60.30
2019-04-18T05:12:23.983Z,60.40
2019-04-18T05:16:29.284Z,60.70
2019-04-18T05:20:32.073Z,60.60
2019-04-18T05:24:35.327Z,60.60
2019-04-18T05:28:39.181Z,61.10
2019-04-18T05:32:42.884Z,61.80
2019-04-18T05:36:55.880Z,62.00
2019-04-18T05:40:51.605Z,62.00
2019-04-18T05:44:57.664Z,62.30
2019-04-18T05:49:03.879Z,62.20
2019-04-18T05:53:18.160Z,62.10
2019-04-18T05:57:21.174Z,62.00
2019-04-18T06:01:41.799Z,61.70
2019-04-18T06:05:47.485Z,60.00
2019-04-18T06:09:50.510Z,59.60
2019-04-18T06:13:55.580Z,59.00
2019-04-18T06:18:13.134Z,58.30
2019-04-18T06:22:18.954Z,58.40
2019-04-18T06:26:27.692Z,58.40
2019-04-18T06:30:31.361Z,57.80
2019-04-18T06:34:34.373Z,57.90
2019-04-18T06:38:38.087Z,56.40
2019-04-18T06:42:48.937Z,57.00
2019-04-18T06:46:50.867Z,57.00
2019-04-18T06:50:57.332Z,57.00
2019-04-18T06:55:03.002Z,56.00
2019-04-18T06:59:04.280Z,56.00
2019-04-18T07:03:09.005Z,56.60
2019-04-18T07:07:13.677Z,55.60
2019-04-18T07:11:21.725Z,56.00
2019-04-18T07:15:24.736Z,55.80
2019-04-18T07:19:36.819Z,56.00
2019-04-18T07:23:44.537Z,56.70
2019-04-18T07:27:50.646Z,56.30
2019-04-18T07:31:52.528Z,55.80
2019-04-18T07:35:55.545Z,55.40
2019-04-18T07:39:59.192Z,54.70
2019-04-18T07:44:07.377Z,55.30
2019-04-18T07:48:12.080Z,55.40
2019-04-18T07:52:15.429Z,54.50
2019-04-18T07:56:18.488Z,53.20
2019-04-18T08:00:22.208Z,51.40
2019-04-18T08:04:25.217Z,47.60
2019-04-18T08:08:28.390Z,45.10
2019-04-18T08:12:31.407Z,45.50
2019-04-18T08:16:34.568Z,44.10
2019-04-18T08:20:37.746Z,43.80
2019-04-18T08:24:43.594Z,41.70
2019-04-18T08:28:45.907Z,41.10
2019-04-18T08:32:49.120Z,41.40
2019-04-18T08:36:52.123Z,42.40
2019-04-18T08:49:15.704Z,37.10
2019-04-18T08:53:48.486Z,39.20
2019-04-18T08:57:44.757Z,36.00
2019-04-18T09:01:47.503Z,35.20
2019-04-18T09:05:51.235Z,34.50
2019-04-18T09:09:54.546Z,36.40
2019-04-18T09:14:05.526Z,36.10
2019-04-18T09:18:12.646Z,35.40
2019-04-18T09:22:14.589Z,36.60
2019-04-18T09:26:18.783Z,36.60
2019-04-18T09:30:25.147Z,37.50
2019-04-18T09:34:29.414Z,35.50
2019-04-18T09:38:33.383Z,34.60
2019-04-18T09:42:36.988Z,35.10
2019-04-18T09:46:42.954Z,33.80
2019-04-18T09:54:51.944Z,31.80
2019-04-18T09:58:54.960Z,30.10
2019-04-18T10:03:01.369Z,30.70
2019-04-18T10:07:04.163Z,30.60
2019-04-18T10:11:10.340Z,30.20
2019-04-18T10:15:16.427Z,29.80
2019-04-18T10:19:20.281Z,29.20
2019-04-18T10:23:27.256Z,29.80
2019-04-18T10:27:30.385Z,28.70
2019-04-18T10:31:44.147Z,28.50
2019-04-18T10:35:47.162Z,30.20
2019-04-18T10:39:50.244Z,30.30
2019-04-18T10:43:54.275Z,29.50
2019-04-18T10:47:58.264Z,30.00
2019-04-18T11:00:13.759Z,31.10
2019-04-18T11:04:21.187Z,32.60
2019-04-18T11:08:21.688Z,32.90
2019-04-18T11:12:24.685Z,29.90
2019-04-18T11:16:27.694Z,32.20
2019-04-18T11:20:31.205Z,33.40
2019-04-18T11:24:34.229Z,32.60
2019-04-18T11:28:37.231Z,30.80
2019-04-18T11:32:40.261Z,30.90
2019-04-18T11:36:43.260Z,34.00
2019-04-18T11:40:46.255Z,34.10
2019-04-18T11:44:50.004Z,31.60
2019-04-18T11:48:54.710Z,34.20
2019-04-18T11:52:58.763Z,31.10
2019-04-18T11:57:02.342Z,31.30
2019-04-18T12:01:20.984Z,31.70
2019-04-18T12:05:25.852Z,33.40
2019-04-18T12:09:28.893Z,33.10
2019-04-18T12:13:31.889Z,34.10
2019-04-18T12:17:34.889Z,33.20
2019-04-18T12:21:37.945Z,32.60
2019-04-18T12:25:40.952Z,33.40
2019-04-18T12:29:43.955Z,32.00
2019-04-18T12:33:47.062Z,32.40
2019-04-18T12:37:50.164Z,33.20
2019-04-18T12:41:53.268Z,32.60
2019-04-18T12:45:56.970Z,30.80
2019-04-18T12:50:02.381Z,29.40
2019-04-18T12:54:05.328Z,31.20
2019-04-18T12:58:12.476Z,30.70
2019-04-18T13:02:16.281Z,31.10
2019-04-18T13:06:19.352Z,32.80
2019-04-18T13:10:27.107Z,31.50
2019-04-18T13:14:35.237Z,32.20
2019-04-18T13:18:38.357Z,30.70
2019-04-18T13:22:42.388Z,30.60
2019-04-18T13:26:45.615Z,32.60
2019-04-18T13:30:48.955Z,31.10
2019-04-18T13:34:52.070Z,33.10
2019-04-18T13:38:55.087Z,31.00
2019-04-18T13:42:58.112Z,30.90
2019-04-18T13:47:01.939Z,29.60
2019-04-18T13:51:06.500Z,29.40
2019-04-18T13:55:11.502Z,29.40
2019-04-18T13:59:16.142Z,29.10
2019-04-18T14:03:19.237Z,29.20
2019-04-18T14:07:22.353Z,31.50
2019-04-18T14:11:25.391Z,31.20
2019-04-18T14:15:29.048Z,30.00
2019-04-18T14:19:32.231Z,29.60
2019-04-18T14:23:35.760Z,29.90
2019-04-18T14:27:38.955Z,29.80
2019-04-18T14:31:42.101Z,32.20
2019-04-18T14:35:45.269Z,31.00
2019-04-18T14:39:48.493Z,29.80
2019-04-18T14:43:52.132Z,29.80
2019-04-18T14:48:06.887Z,31.40
2019-04-18T14:52:03.146Z,30.20
2019-04-18T14:56:06.256Z,30.80
2019-04-18T15:04:17.609Z,29.20
2019-04-18T15:08:20.756Z,29.60
2019-04-18T15:12:23.992Z,32.80
2019-04-18T15:16:27.028Z,29.10
2019-04-18T15:20:32.032Z,28.60
2019-04-18T15:24:35.052Z,28.50
2019-04-18T15:28:44.605Z,29.10
2019-04-18T15:32:47.728Z,29.30
2019-04-18T15:36:50.742Z,28.30
2019-04-18T15:40:53.776Z,28.10
2019-04-18T15:45:04.257Z,28.60
2019-04-18T15:49:07.829Z,28.30
2019-04-18T15:53:13.556Z,28.80
2019-04-18T15:57:16.720Z,29.20
2019-04-18T16:01:21.865Z,29.00
2019-04-18T16:05:27.672Z,28.60
2019-04-18T16:09:31.556Z,29.80
2019-04-18T16:13:35.528Z,29.50
2019-04-18T16:17:38.616Z,30.40
2019-04-18T16:21:44.301Z,30.00
2019-04-18T16:25:46.951Z,28.80
2019-04-18T16:29:49.977Z,28.80
2019-04-18T16:33:53.034Z,29.10
2019-04-18T16:37:56.069Z,29.10
2019-04-18T16:41:59.129Z,29.80
2019-04-18T16:46:03.712Z,29.30
2019-04-18T16:50:07.514Z,30.20
2019-04-18T16:54:10.576Z,30.30
2019-04-18T16:58:13.709Z,30.00
2019-04-18T17:06:22.696Z,29.80
2019-04-18T17:10:28.299Z,31.00
2019-04-18T17:14:31.638Z,31.30
2019-04-18T17:18:34.763Z,29.80
2019-04-18T17:22:40.052Z,30.00
2019-04-18T17:26:44.508Z,33.40
2019-04-18T17:30:49.233Z,29.00
2019-04-18T17:35:02.602Z,29.80
2019-04-18T17:39:17.300Z,29.90
2019-04-18T17:43:07.987Z,30.00
2019-04-18T17:47:18.951Z,29.70
2019-04-18T17:51:36.782Z,30.20
2019-04-18T17:55:42.454Z,30.30
2019-04-18T17:59:33.326Z,30.40
2019-04-18T18:03:43.904Z,30.70
2019-04-18T18:07:45.288Z,30.60
2019-04-18T18:11:53.199Z,30.60
2019-04-18T18:16:17.738Z,30.80
2019-04-18T18:20:15.617Z,30.80
2019-04-18T18:24:19.964Z,30.50
2019-04-18T18:28:24.484Z,30.80
2019-04-18T18:32:34.079Z,31.00
2019-04-18T18:36:42.349Z,30.70
2019-04-18T18:40:49.087Z,31.30
2019-04-18T18:44:55.811Z,31.40
2019-04-18T18:48:58.928Z,31.20
2019-04-18T18:53:03.492Z,31.40
2019-04-18T18:57:11.222Z,31.70
2019-04-18T19:01:18.359Z,31.80
2019-04-18T19:05:29.838Z,31.90
2019-04-18T19:09:38.720Z,32.20
2019-04-18T19:13:45.771Z,32.40
2019-04-18T19:17:36.336Z,32.60
2019-04-18T19:21:40.109Z,33.80
2019-04-18T19:25:45.194Z,33.60
2019-04-18T19:30:00.074Z,33.60
2019-04-18T19:33:54.548Z,33.70
2019-04-18T19:38:19.344Z,34.00
2019-04-18T19:42:10.371Z,34.10
2019-04-18T19:46:08.759Z,34.20
2019-04-18T19:50:15.701Z,34.20
2019-04-18T19:54:20.788Z,34.40
2019-04-18T19:58:24.403Z,34.30
2019-04-18T20:02:27.615Z,34.30
2019-04-18T20:10:46.542Z,34.50
2019-04-18T20:14:40.333Z,35.10
2019-04-18T20:18:45.384Z,34.70
2019-04-18T20:22:50.541Z,34.80
2019-04-18T20:26:57.399Z,35.40
2019-04-18T20:31:04.158Z,35.10
2019-04-18T20:35:06.692Z,35.50
2019-04-18T20:39:29.926Z,35.50
2019-04-18T20:43:23.807Z,35.60
2019-04-18T20:47:35.427Z,35.90
2019-04-18T20:51:42.361Z,35.90
2019-04-18T20:55:44.793Z,35.90
2019-04-18T20:59:37.564Z,36.10
2019-04-18T21:03:42.706Z,36.20
2019-04-18T21:16:01.717Z,36.40
2019-04-18T21:19:59.325Z,36.70
2019-04-18T21:24:04.082Z,36.70
2019-04-18T21:28:13.946Z,36.90
2019-04-18T21:32:12.821Z,37.30
2019-04-18T21:36:20.072Z,37.50
2019-04-18T21:40:23.557Z,37.30
2019-04-18T21:44:26.603Z,37.40
2019-04-18T21:48:30.574Z,37.40
2019-04-18T21:52:34.679Z,37.20
2019-04-18T21:56:44.483Z,37.00
2019-04-18T22:00:56.932Z,37.40
2019-04-18T22:04:55.485Z,37.50
2019-04-18T22:09:02.219Z,37.50
2019-04-18T22:25:16.890Z,38.20
2019-04-18T22:29:25.486Z,38.10
2019-04-18T22:33:31.108Z,38.50
2019-04-18T22:37:38.244Z,38.40
2019-04-18T22:41:37.874Z,39.00
2019-04-18T22:45:42.986Z,39.20
2019-04-18T22:49:50.796Z,39.70
2019-04-18T22:53:55.911Z,39.70
2019-04-18T22:57:55.452Z,39.70
2019-04-18T23:02:02.626Z,40.00
2019-04-18T23:06:04.795Z,40.30
2019-04-18T23:10:08.369Z,40.50
2019-04-18T23:18:22.217Z,40.50
2019-04-18T23:22:23.521Z,40.60
2019-04-18T23:26:28.303Z,40.40
2019-04-18T23:30:33.279Z,41.10
2019-04-18T23:34:40.308Z,40.90
2019-04-18T23:38:44.716Z,41.10
2019-04-18T23:42:49.834Z,41.10
2019-04-18T23:46:58.829Z,41.30
2019-04-18T23:50:56.266Z,41.00
2019-04-18T23:55:07.612Z,41.40
2019-04-18T23:59:06.483Z,42.00
